Portada
METAR-TAF:

METAR-TAF

Aeroports :

Vanua Lava, Vanuatu

latitud: 13-51-06S, longitud: 167-32-13E, altitud: 2 m

METAR: manca

Hora: 00:29 (13:29 UTC)

Pronòstic

L'informe es va fer fa 20 hores i 29 minuts, a les 17:00 UTC
Pronòstic vàlid del 18 a les 18 UTC al 19 a les 18 UTC
Vent 8 kt del Est/Sud-Est
Visibilitat 10 km o més
Núvols disperses a una alçada de 2000 ft
Cel ennuvolat a una alçada de 4000 ft
Temporalment
l' 18 a les 18 UTC al 18 a les 24 UTC
Visibilitat: 7000 m
Núvols disperses a una alçada de 1000 ft
Cel ennuvolat a una alçada de 1600 ft
Cel cobert a una alçada de 3800 ft
Núvols disperses a una alçada de 800 ft
Cel ennuvolat a una alçada de 1400 ft
Cel cobert a una alçada de 3000 ft
xàfecs de pluja, pluja,

TAF: NVSC 181700Z 1818/1918 11008KT 9999 SCT020 BKN040 TEMPO 1818/1824 8000 SHRA SCT010 BKN016 OVC038 INTER 1820/1901 7000 +RA SCT008 BKN014 OVC030

Observacions i pronòstics meteorològics de més de 4000 aeroports (METAR i TAF).

Les estacions disponibles són els punts grocs i vermells al mapa.

Posi el ratolí al punt desitjat per veure el nom de l'estació.

Feu clic per veure les observacions i els pronòstics meteorològics.

Per canviar el mapa: feu clic els botons verds amb una creu de color negre per apropar; al botó verd amb un guió per allunyar la imatge; o en les fletxes verdes per a mapes adjacents.


METAR-TAF: